CSJ4 weather

Public forecast

Using degrees Celsius for public forecast. Weather courtesy of forecast.io.

Closest aviation weather report (METAR) to Louiseville Airport

Closest report is Trois-Rivières Airport, 11.3 nm (21.0 km) NE. Retrieved 2020/08/09 09:00 UTC (12 minutes ago):

CYRQ 090900Z AUTO 20002KT 9SM SCT220 BKN240 15/15 A3003 RMK SLP172

Closest aviation forecast (TAF) to Louiseville Airport

Closest forecast is Trois-Rivières Airport, 11.3 nm (21.0 km) NE. Retrieved 2020/08/09 08:00 UTC (1 hour ago):

TAF CYRQ 090738Z 0908/0920 VRB03KT P6SM SCT060 BKN240 BECMG 0908/0910 21006KT FM091500 21010KT P6SM SCT050 BKN140 FM091800 22012KT P6SM FEW040 SCT140 RMK FCST BASED ON AUTO OBS NXT FCST BY 091400Z